Map

Track Data

SID SEASON NUMBER BASIN SUBBASIN NAME ISO_TIME NATURE LAT LON WMO_WIND WMO_PRES WMO_AGENCY TRACK_TYPE DIST2LAND LANDFALL IFLAG USA_AGENCY USA_ATCF_ID USA_LAT USA_LON USA_RECORD USA_STATUS USA_WIND USA_PRES USA_SSHS USA_R34_NE USA_R34_SE USA_R34_SW USA_R34_NW USA_R50_NE USA_R50_SE USA_R50_SW USA_R50_NW USA_R64_NE USA_R64_SE USA_R64_SW USA_R64_NW USA_POCI USA_ROCI USA_RMW USA_EYE TOKYO_LAT TOKYO_LON TOKYO_GRADE TOKYO_WIND TOKYO_PRES TOKYO_R50_DIR TOKYO_R50_LONG TOKYO_R50_SHORT TOKYO_R30_DIR TOKYO_R30_LONG TOKYO_R30_SHORT TOKYO_LAND CMA_LAT CMA_LON CMA_CAT CMA_WIND CMA_PRES HKO_LAT HKO_LON HKO_CAT HKO_WIND HKO_PRES NEWDELHI_LAT NEWDELHI_LON NEWDELHI_GRADE NEWDELHI_WIND NEWDELHI_PRES NEWDELHI_CI NEWDELHI_DP NEWDELHI_POCI REUNION_LAT REUNION_LON REUNION_TYPE REUNION_WIND REUNION_PRES REUNION_TNUM REUNION_CI REUNION_RMW REUNION_R34_NE REUNION_R34_SE REUNION_R34_SW REUNION_R34_NW REUNION_R50_NE REUNION_R50_SE REUNION_R50_SW REUNION_R50_NW REUNION_R64_NE REUNION_R64_SE REUNION_R64_SW REUNION_R64_NW BOM_LAT BOM_LON BOM_TYPE BOM_WIND BOM_PRES BOM_TNUM BOM_CI BOM_RMW BOM_R34_NE BOM_R34_SE BOM_R34_SW BOM_R34_NW BOM_R50_NE BOM_R50_SE BOM_R50_SW BOM_R50_NW BOM_R64_NE BOM_R64_SE BOM_R64_SW BOM_R64_NW BOM_ROCI BOM_POCI BOM_EYE BOM_POS_METHOD BOM_PRES_METHOD NADI_LAT NADI_LON NADI_CAT NADI_WIND NADI_PRES WELLINGTON_LAT WELLINGTON_LON WELLINGTON_WIND WELLINGTON_PRES DS824_LAT DS824_LON DS824_STAGE DS824_WIND DS824_PRES TD9636_LAT TD9636_LON TD9636_STAGE TD9636_WIND TD9636_PRES TD9635_LAT TD9635_LON TD9635_WIND TD9635_PRES TD9635_ROCI NEUMANN_LAT NEUMANN_LON NEUMANN_CLASS NEUMANN_WIND NEUMANN_PRES MLC_LAT MLC_LON MLC_CLASS MLC_WIND MLC_PRES USA_GUST BOM_GUST BOM_GUST_PER REUNION_GUST REUNION_GUST_PER USA_SEAHGT USA_SEARAD_NE USA_SEARAD_SE USA_SEARAD_SW USA_SEARAD_NW STORM_SPEED STORM_DIR
2002319S06078 2003 90 SI MM BOURA 2002-11-14 18:00:00 TS -6.26667 77.9000 25 1002 reunion main 1399 1399 O____O______O_ jtwc_sh SH032003 -6.30000 77.7000 TD 25 1002 -1 -6.20000 78.3000 2 25 1002 1.50000 1.50000 -6.30000 77.7000 TC 25 12 216
2002319S06078 2003 90 SI MM BOURA 2002-11-14 21:00:00 TS -6.73177 77.5544 main 1450 1450 P____P______P_ SH032003 -6.74506 77.4401 TD 25 1002 -1 -6.70519 77.7828 2 26 1000 -6.74506 77.4401 TC 25 11 214
2002319S06078 2003 90 SI MM BOURA 2002-11-15 00:00:00 TS -7.20000 77.2667 28 999 reunion main 1513 1513 O____O______O_ jtwc_sh SH032003 -7.20000 77.2000 TD 25 1002 -1 -7.20000 77.4000 2 28 999 2.00000 2.00000 -7.20000 77.2000 TC 25 11 208
2002319S06078 2003 90 SI MM BOURA 2002-11-15 03:00:00 TS -7.66740 77.0623 main 1572 1572 P____P______P_ SH032003 -7.66492 76.9799 TD 27 1001 -1 -7.67238 77.2273 2 29 998 -7.66492 76.9799 TC 27 10 205
2002319S06078 2003 90 SI MM BOURA 2002-11-15 06:00:00 TS -8.10000 76.8333 30 997 reunion main 1624 1624 O____O______O_ jtwc_sh SH032003 -8.10000 76.7000 TD 30 1000 -1 1007 120 40 -8.10000 77.1000 2 30 997 2.50000 2.50000 -8.10000 76.7000 TC 30 10 216
2002319S06078 2003 90 SI MM BOURA 2002-11-15 09:00:00 TS -8.47000 76.4708 main 1676 1676 P____P______P_ SH032003 -8.47256 76.2725 TD 32 998 -1 1007 120 40 -8.46487 76.8673 2 32 995 -8.47256 76.2725 TC 32 11 229
2002319S06078 2003 90 SI MM BOURA 2002-11-15 12:00:00 TS -8.80000 76.0333 35 994 reunion main 1724 1724 O____O______O_ jtwc_sh SH032003 -8.80000 75.8000 TS 35 997 0 1007 120 40 -8.80000 76.5000 3 35 994 2.50000 2.50000 -8.80000 75.8000 TC 35 11 233
2002319S06078 2003 90 SI MM BOURA 2002-11-15 15:00:00 TS -9.13165 75.5766 main 1769 1769 P____P______P_ SH032003 -9.11490 75.3999 TS 37 995 0 1007 120 37 -9.16515 75.9301 3 35 994 -9.11490 75.3999 TC 37 11 235
2002319S06078 2003 90 SI MM BOURA 2002-11-15 18:00:00 TS -9.43333 75.1000 35 994 reunion main 1819 1819 O____O______O_ jtwc_sh SH032003 -9.40000 75.0000 TS 40 994 0 50 70 70 50 1008 120 35 -9.50000 75.3000 3 35 994 2.50000 2.50000 -9.40000 75.0000 TC 40 11 239
2002319S06078 2003 90 SI MM BOURA 2002-11-15 21:00:00 TS -9.69076 74.6332 main 1869 1869 P____P______P_ SH032003 -9.65750 74.5499 TS 40 994 0 50 75 75 50 1008 120 37 -9.75729 74.7998 3 36 993 -9.65750 74.5499 TC 40 11 241
2002319S06078 2003 90 SI MM BOURA 2002-11-16 00:00:00 TS -9.93333 74.1667 38 992 reunion main 1905 1905 O____O______O_ jtwc_sh SH032003 -9.90000 74.1000 TS 40 994 0 50 80 80 50 1008 120 40 -10.0000 74.3000 3 38 992 3.00000 3.00000 -9.90000 74.1000 TC 40 11 241
2002319S06078 2003 90 SI MM BOURA 2002-11-16 03:00:00 TS -10.2075 73.6950 main 1957 1957 P____P______P_ SH032003 -10.1574 73.6925 TS 40 994 0 55 95 95 55 1007 125 40 -10.3075 73.7001 3 38 992 -10.1574 73.6925 TC 40 11 240
2002319S06078 2003 90 SI MM BOURA 2002-11-16 06:00:00 TS -10.4667 73.2333 38 992 reunion main 1977 1929 O____O______O_ jtwc_sh SH032003 -10.4000 73.3000 TS 40 994 0 60 110 110 60 1006 130 40 -10.6000 73.1000 3 38 992 3.00000 3.00000 -10.4000 73.3000 TC 40 10 242
2002319S06078 2003 90 SI MM BOURA 2002-11-16 09:00:00 TS -10.6690 72.8073 main 1929 1880 P____P______P_ SH032003 -10.5999 72.9149 TS 42 992 0 60 110 110 60 1006 130 35 -10.8073 72.5923 3 39 991 -10.5999 72.9149 TC 42 9 245
2002319S06078 2003 90 SI MM BOURA 2002-11-16 12:00:00 TS -10.8667 72.3667 40 990 reunion main 1880 1822 O____O______O_ jtwc_sh SH032003 -10.8000 72.5000 TS 45 991 0 60 110 110 60 1006 130 30 -11.0000 72.1000 3 40 990 3.00000 3.00000 -10.8000 72.5000 TC 45 10 244
2002319S06078 2003 90 SI MM BOURA 2002-11-16 15:00:00 TS -11.1216 71.8650 main 1822 1758 P____P______P_ SH032003 -11.0574 72.0225 TS 45 991 0 60 105 105 60 1006 130 32 -11.2500 71.5500 3 42 988 -11.0574 72.0225 TC 45 11 244
2002319S06078 2003 90 SI MM BOURA 2002-11-16 18:00:00 TS -11.3667 71.3333 45 987 reunion main 1749 1699 O____O______O_ jtwc_sh SH032003 -11.3000 71.5000 TS 45 991 0 60 100 100 60 1006 130 35 -11.5000 71.0000 3 45 987 3.50000 3.50000 -11.3000 71.5000 TC 45 11 249
2002319S06078 2003 90 SI MM BOURA 2002-11-16 21:00:00 TS -11.5384 70.7799 main 1699 1641 P____P______P_ SH032003 -11.4500 70.9423 TS 50 987 0 60 100 100 60 1006 130 37 -11.7150 70.4550 3 47 986 -11.4500 70.9423 TC 50 11 252
2002319S06078 2003 90 SI MM BOURA 2002-11-17 00:00:00 TS -11.7000 70.2667 50 985 reunion main 1641 1593 O____O______O_ jtwc_sh SH032003 -11.6000 70.4000 TS 55 984 0 60 100 100 60 1006 130 40 -11.9000 70.0000 3 50 985 3.50000 3.50000 -11.6000 70.4000 TC 55 10 248
2002319S06078 2003 90 SI MM BOURA 2002-11-17 03:00:00 TS -11.8990 69.8558 main 1593 1545 P____P______P_ SH032003 -11.8274 69.9200 TS 60 980 0 65 125 125 65 1006 140 32 -12.0423 69.7273 3 55 980 -11.8274 69.9200 TC 60 9 240
2002319S06078 2003 90 SI MM BOURA 2002-11-17 06:00:00 TS -12.1333 69.5000 60 975 reunion main 1545 1499 O____O______O_ jtwc_sh SH032003 -12.1000 69.5000 TY 65 976 1 70 150 150 70 1006 150 25 -12.2000 69.5000 3 60 975 4.00000 4.00000 -12.1000 69.5000 TC 65 9 234
2002319S06078 2003 90 SI MM BOURA 2002-11-17 09:00:00 TS -12.4191 69.1350 main 1490 1444 P____P______P_ SH032003 -12.4074 69.1275 TY 65 976 1 70 150 150 70 1006 150 25 -12.4426 69.1501 3 62 972 -12.4074 69.1275 TC 65 9 230
2002319S06078 2003 90 SI MM BOURA 2002-11-17 12:00:00 TS -12.7000 68.8000 65 970 reunion main 1444 1404 O____O______O_ jtwc_sh SH032003 -12.7000 68.8000 TY 65 976 1 70 150 150 70 1006 150 25 -12.7000 68.8000 4 65 970 4.50000 4.50000 -12.7000 68.8000 TC 65 8 230
2002319S06078 2003 90 SI MM BOURA 2002-11-17 15:00:00 TS -12.9199 68.5191 main 1404 1374 P____P______P_ SH032003 -12.9224 68.4999 TY 70 971 1 70 150 150 70 1006 152 25 -12.9149 68.5574 4 67 967 -12.9224 68.4999 TC 70 7 234
2002319S06078 2003 90 SI MM BOURA 2002-11-17 18:00:00 TS -13.1000 68.2333 70 965 reunion main 1365 1325 O____O______O_ jtwc_sh SH032003 -13.1000 68.2000 TY 75 967 1 70 150 150 70 1006 155 25 -13.1000 68.3000 4 70 965 4.50000 4.50000 -13.1000 68.2000 TC 75 7 240
2002319S06078 2003 90 SI MM BOURA 2002-11-17 21:00:00 TS -13.2724 67.8917 main 1325 1284 P____P______P_ SH032003 -13.2649 67.8799 TY 75 967 1 70 150 150 70 1006 155 25 -13.2876 67.9151 4 70 965 -13.2649 67.8799 TC 75 8 247
2002319S06078 2003 90 SI MM BOURA 2002-11-18 00:00:00 TS -13.4000 67.5000 70 965 reunion main 1284 1243 O____O______O_ jtwc_sh SH032003 -13.4000 67.5000 TY 75 967 1 70 150 150 70 1006 155 25 -13.4000 67.5000 4 70 965 4.50000 4.50000 -13.4000 67.5000 TC 75 8 257
2002319S06078 2003 90 SI MM BOURA 2002-11-18 03:00:00 TS -13.4650 67.0649 main 1243 1200 P____P______P_ SH032003 -13.5150 67.0225 TY 75 967 1 67 145 145 67 1005 147 22 -13.3649 67.1498 4 70 965 -13.5150 67.0225 TC 75 9 263
2002319S06078 2003 90 SI MM BOURA 2002-11-18 06:00:00 TS -13.5000 66.6000 70 965 reunion main 1200 1167 O____O______O_ jtwc_sh SH032003 -13.6000 66.5000 TY 75 967 1 65 140 140 65 1004 140 20 -13.3000 66.8000 4 70 965 4.00000 4.50000 -13.6000 66.5000 TC 75 9 264
2002319S06078 2003 90 SI MM BOURA 2002-11-18 09:00:00 TS -13.5524 66.1383 main 1152 1119 P____P______P_ SH032003 -13.6650 65.9850 TY 75 967 1 65 140 140 65 1004 140 20 -13.3273 66.4450 4 67 967 -13.6650 65.9850 TC 75 9 264
2002319S06078 2003 90 SI MM BOURA 2002-11-18 12:00:00 TS -13.6000 65.6667 65 970 reunion main 1119 1079 O____O______O_ jtwc_sh SH032003 -13.7000 65.5000 TY 75 967 1 65 140 140 65 1004 140 20 -13.4000 66.0000 4 65 970 4.00000 4.50000 -13.7000 65.5000 TC 75 9 264
2002319S06078 2003 90 SI MM BOURA 2002-11-18 15:00:00 TS -13.6433 65.1759 main 1079 1033 P____P______P_ SH032003 -13.7073 65.0925 TY 75 967 1 65 140 140 65 1004 140 20 -13.5154 65.3427 4 62 972 -13.7073 65.0925 TC 75 9 266
2002319S06078 2003 90 SI MM BOURA 2002-11-18 18:00:00 TS -13.6667 64.7000 60 975 reunion main 1033 1010 O____O______O_ jtwc_sh SH032003 -13.7000 64.7000 TY 75 967 1 65 140 140 65 1004 140 20 -13.6000 64.7000 3 60 975 4.00000 4.00000 -13.7000 64.7000 TC 75 9 270
2002319S06078 2003 90 SI MM BOURA 2002-11-18 21:00:00 TS -13.6448 64.2857 main 1010 981 P____P______P_ SH032003 -13.6924 64.2649 TY 75 967 1 70 140 140 70 1004 140 20 -13.5496 64.3273 3 60 975 -13.6924 64.2649 TC 75 8 272
2002319S06078 2003 90 SI MM BOURA 2002-11-19 00:00:00 TS -13.6333 63.8667 60 975 reunion main 981 938 O____O______O_ jtwc_sh SH032003 -13.7000 63.8000 TY 75 967 1 75 140 140 75 1004 140 20 -13.5000 64.0000 3 60 975 4.00000 4.00000 -13.7000 63.8000 TC 75 9 269
2002319S06078 2003 90 SI MM BOURA 2002-11-19 03:00:00 TS -13.6576 63.3616 main 938 895 P____P______P_ SH032003 -13.7050 63.2923 TY 75 967 1 75 140 140 75 1004 140 20 -13.5626 63.5000 3 60 975 -13.7050 63.2923 TC 75 10 262
2002319S06078 2003 90 SI MM BOURA 2002-11-19 06:00:00 TS -13.7667 62.8667 60 975 reunion main 895 852 O____O______O_ jtwc_sh SH032003 -13.8000 62.8000 TY 75 967 1 75 140 140 75 1004 140 20 -13.7000 63.0000 3 60 975 4.00000 4.00000 -13.8000 62.8000 TC 75 9 247
2002319S06078 2003 90 SI MM BOURA 2002-11-19 09:00:00 TS -14.0105 62.4908 main 852 799 P____P______P_ SH032003 -14.0773 62.4001 TY 75 967 1 75 140 140 75 1004 140 20 -13.8771 62.6723 3 60 975 -14.0773 62.4001 TC 75 9 234
2002319S06078 2003 90 SI MM BOURA 2002-11-19 12:00:00 TS -14.3000 62.1000 60 975 reunion main 799 751 O____O______O_ jtwc_sh SH032003 -14.4000 62.0000 TY 75 967 1 75 140 140 75 1004 140 20 -14.1000 62.3000 3 60 975 4.00000 4.00000 -14.4000 62.0000 TC 75 10 239
2002319S06078 2003 90 SI MM BOURA 2002-11-19 15:00:00 TS -14.5392 61.5725 main 751 698 P____P______P_ SH032003 -14.6299 61.5224 TY 75 967 1 80 140 140 80 1004 175 20 -14.3578 61.6727 3 57 977 -14.6299 61.5224 TC 75 12 248
2002319S06078 2003 90 SI MM BOURA 2002-11-19 18:00:00 TS -14.7333 61.0000 55 980 reunion main 698 663 O____O______O_ jtwc_sh SH032003 -14.8000 61.0000 TY 75 967 1 85 140 140 85 1004 210 20 -14.6000 61.0000 3 55 980 4.00000 4.00000 -14.8000 61.0000 TC 75 11 254
2002319S06078 2003 90 SI MM BOURA 2002-11-19 21:00:00 TS -14.8525 60.4415 main 648 620 P____P______P_ SH032003 -14.9001 60.4348 TY 75 967 1 85 140 140 85 1004 175 20 -14.7574 60.4548 3 55 980 -14.9001 60.4348 TC 75 11 257
2002319S06078 2003 90 SI MM BOURA 2002-11-20 00:00:00 TS -14.9667 59.9333 55 980 reunion main 616 584 O____O______O_ jtwc_sh SH032003 -15.0000 59.9000 TY 75 967 1 85 140 140 85 1004 140 20 -14.9000 60.0000 3 55 980 4.00000 4.00000 -15.0000 59.9000 TC 75 9 250
2002319S06078 2003 90 SI MM BOURA 2002-11-20 03:00:00 TS -15.1689 59.5400 main 580 549 P____P______P_ SH032003 -15.1998 59.4776 TY 75 967 1 85 140 140 85 1004 140 20 -15.1071 59.6649 3 55 980 -15.1998 59.4776 TC 75 8 242
2002319S06078 2003 90 SI MM BOURA 2002-11-20 06:00:00 TS -15.3667 59.1667 55 980 reunion main 549 525 O____O______O_ jtwc_sh SH032003 -15.4000 59.1000 TY 75 967 1 85 140 140 85 1004 140 20 -15.3000 59.3000 3 55 980 3.50000 4.00000 -15.4000 59.1000 TC 75 9 249
2002319S06078 2003 90 SI MM BOURA 2002-11-20 09:00:00 TS -15.4918 58.6900 main 525 507 P____P______P_ SH032003 -15.5225 58.6924 TY 75 967 1 85 140 140 85 1004 140 20 -15.4304 58.6851 3 55 980 -15.5225 58.6924 TC 75 9 257
2002319S06078 2003 90 SI MM BOURA 2002-11-20 12:00:00 TS -15.5667 58.2333 55 980 reunion main 506 503 O____O______O_ jtwc_sh SH032003 -15.6000 58.3000 TY 75 967 1 85 140 140 85 1004 140 20 -15.5000 58.1000 3 55 980 3.50000 4.00000 -15.6000 58.3000 TC 75 8 260
2002319S06078 2003 90 SI MM BOURA 2002-11-20 15:00:00 TS -15.6298 57.9067 main 503 503 P____P______P_ SH032003 -15.6799 57.9501 TY 70 971 1 85 160 150 85 1004 140 20 -15.5296 57.8200 3 55 980 -15.6799 57.9501 TC 70 6 264
2002319S06078 2003 90 SI MM BOURA 2002-11-20 18:00:00 TS -15.6333 57.6000 55 980 reunion main 503 503 O____O______O_ jtwc_sh SH032003 -15.7000 57.6000 TY 65 976 1 85 180 160 85 1004 140 20 -15.5000 57.6000 3 55 980 3.00000 4.00000 -15.7000 57.6000 TC 65 7 276
2002319S06078 2003 90 SI MM BOURA 2002-11-20 21:00:00 TS -15.5608 57.2099 main 504 504 P____P______P_ SH032003 -15.6300 57.2074 TY 60 980 0 1006 145 17 -15.4226 57.2150 3 52 982 -15.6300 57.2074 TC 60 8 285
2002319S06078 2003 90 SI MM BOURA 2002-11-21 00:00:00 TS -15.4333 56.8000 50 985 reunion main 531 531 O____O______O_ jtwc_sh SH032003 -15.5000 56.8000 TS 55 984 0 1008 150 15 -15.3000 56.8000 3 50 985 3.00000 3.50000 -15.5000 56.8000 TC 55 8 289
2002319S06078 2003 90 SI MM BOURA 2002-11-21 03:00:00 TS -15.3008 56.4042 main 549 549 P____P______P_ SH032003 -15.3650 56.3850 TS 52 985 0 1008 145 27 -15.1724 56.4426 3 47 986 -15.3650 56.3850 TC 52 8 292
2002319S06078 2003 90 SI MM BOURA 2002-11-21 06:00:00 TS -15.1333 56.0333 45 987 reunion main 581 558 O____O______O_ jtwc_sh SH032003 -15.2000 56.0000 TS 50 987 0 80 110 115 80 1008 140 40 -15.0000 56.1000 3 45 987 3.00000 3.50000 -15.2000 56.0000 TC 50 8 299
2002319S06078 2003 90 SI MM BOURA 2002-11-21 09:00:00 TS -14.9291 55.6992 main 559 529 P____P______P_ SH032003 -15.0149 55.6851 TS 47 989 0 72 100 107 72 1007 135 35 -14.7575 55.7274 3 42 988 -15.0149 55.6851 TC 47 8 305
2002319S06078 2003 90 SI MM BOURA 2002-11-21 12:00:00 TS -14.7000 55.4000 40 990 reunion main 529 500 O____O______O_ jtwc_sh SH032003 -14.8000 55.4000 TS 45 991 0 65 90 100 65 1007 130 30 -14.5000 55.4000 3 40 990 2.50000 3.00000 -14.8000 55.4000 TC 45 7 310
2002319S06078 2003 90 SI MM BOURA 2002-11-21 15:00:00 TS -14.4741 55.1309 main 500 483 P____P______P_ SH032003 -14.5575 55.1000 TS 42 992 0 62 110 115 62 1007 130 30 -14.3074 55.1927 3 39 991 -14.5575 55.1000 TC 42 7 312
2002319S06078 2003 90 SI MM BOURA 2002-11-21 18:00:00 TS -14.2333 54.8667 38 992 reunion main 486 461 O____O______O_ jtwc_sh SH032003 -14.3000 54.8000 TS 40 994 0 60 130 130 60 1007 130 30 -14.1000 55.0000 3 38 992 2.00000 3.00000 -14.3000 54.8000 TC 40 7 313
2002319S06078 2003 90 SI MM BOURA 2002-11-21 21:00:00 TS -13.9716 54.5742 main 461 438 P____P______P_ SH032003 -14.0575 54.5001 TS 37 995 0 60 130 130 60 1005 162 30 -13.8000 54.7224 3 36 993 -14.0575 54.5001 TC 37 8 312
2002319S06078 2003 90 SI MM BOURA 2002-11-22 00:00:00 TS -13.7000 54.2667 35 995 reunion main 442 422 O____O______O_ jtwc_sh SH032003 -13.8000 54.2000 TS 35 997 0 60 130 130 60 1004 195 30 -13.5000 54.4000 3 35 995 2.00000 2.50000 -13.8000 54.2000 TC 35 8 312
2002319S06078 2003 90 SI MM BOURA 2002-11-22 03:00:00 TS -13.4208 53.9550 main 424 395 P____P______P_ SH032003 -13.4925 53.9000 TS 35 997 0 60 130 130 60 -13.2774 54.0651 3 32 996 -13.4925 53.9000 TC 35 8 311
2002319S06078 2003 90 SI MM BOURA 2002-11-22 06:00:00 TS -13.1667 53.6333 30 998 reunion main 384 357 O____O______O_ jtwc_sh SH032003 -13.2000 53.6000 TS 35 997 0 60 130 130 60 -13.1000 53.7000 2 30 998 2.00000 2.50000 -13.2000 53.6000 TC 35 8 305
2002319S06078 2003 90 SI MM BOURA 2002-11-22 09:00:00 TS -12.9808 53.3001 main 357 331 P____P______P_ SH032003 -12.9924 53.3076 TS 35 997 0 -12.9576 53.2851 2 30 998 -12.9924 53.3076 TC 35 7 299
2002319S06078 2003 90 SI MM BOURA 2002-11-22 12:00:00 TS -12.8000 52.9667 30 998 reunion main 331 306 O____O______O_ jtwc_sh SH032003 -12.8000 53.0000 TS 35 997 0 -12.8000 52.9000 2 30 998 2.00000 2.50000 -12.8000 53.0000 TC 35 8 303
2002319S06078 2003 90 SI MM BOURA 2002-11-22 15:00:00 TS -12.5700 52.6451 main 295 279 P____P______P_ SH032003 -12.5650 52.6500 TS 32 998 -1 -12.5799 52.6351 2 27 999 -12.5650 52.6500 TC 32 8 309
2002319S06078 2003 90 SI MM BOURA 2002-11-22 18:00:00 TS -12.3000 52.3333 25 1000 reunion main 272 254 O____O______O_ jtwc_sh SH032003 -12.3000 52.3000 TD 30 1000 -1 -12.3000 52.4000 2 25 1000 2.00000 2.00000 -12.3000 52.3000 TC 30 8 313
2002319S06078 2003 90 SI MM BOURA 2002-11-22 21:00:00 TS -11.9983 52.0183 main 254 243 P____P______P_ SH032003 -12.0150 51.9775 TD 30 1000 -1 -11.9650 52.1000 2 25 1000 -12.0150 51.9775 TC 30 9 317
2002319S06078 2003 90 SI MM BOURA 2002-11-23 00:00:00 TS -11.6667 51.7333 25 1000 reunion main 243 243 O____O______O_ jtwc_sh SH032003 -11.7000 51.7000 TD 30 1000 -1 -11.6000 51.8000 2 25 1000 2.00000 2.00000 -11.7000 51.7000 TC 30 9 323
2002319S06078 2003 90 SI MM BOURA 2002-11-23 03:00:00 TS -11.3041 51.4917 main 249 240 P____P______P_ SH032003 -11.3425 51.4775 TD 30 1000 -1 -11.2275 51.5200 2 25 1001 -11.3425 51.4775 TC 30 8 329
2002319S06078 2003 90 SI MM BOURA 2002-11-23 06:00:00 TS -10.9667 51.3000 25 1002 reunion main 246 244 O____O______O_ jtwc_sh SH032003 -11.0000 51.3000 TD 30 1000 -1 -10.9000 51.3000 2 25 1002 1.50000 2.00000 -11.0000 51.3000 TC 30 7 330
2002319S06078 2003 90 SI MM BOURA 2002-11-23 09:00:00 TS -10.7083 51.1392 main 250 250 P____P______P_ SH032003 -10.7275 51.1275 TD 27 1001 -1 -10.6700 51.1626 2 25 1002 -10.7275 51.1275 TC 27 5 331
2002319S06078 2003 90 SI MM BOURA 2002-11-23 12:00:00 TS -10.5000 51.0333 25 1003 reunion main 257 257 O____O______O_ jtwc_sh SH032003 -10.5000 51.0000 TD 25 1002 -1 -10.5000 51.1000 2 25 1003 1.50000 2.00000 -10.5000 51.0000 TC 25 4 339
2002319S06078 2003 90 SI MM BOURA 2002-11-23 15:00:00 TS -10.3292 50.9875 main 273 273 P____P______P_ SH032003 -10.3075 50.9275 TD 25 1002 -1 -10.3725 51.1076 2 25 1003 -10.3075 50.9275 TC 25 4 349
2002319S06078 2003 90 SI MM BOURA 2002-11-23 18:00:00 TS -10.1333 50.9667 25 1004 reunion main 290 290 O____O______O_ jtwc_sh SH032003 -10.1000 50.9000 TD 25 1002 -1 -10.2000 51.1000 2 25 1004 1.50000 2.00000 -10.1000 50.9000 TC 25 5 352
2002319S06078 2003 90 SI MM BOURA 2002-11-23 21:00:00 TS -9.81667 50.9216 main 311 311 P____P______P_ SH032003 -9.80000 50.9000 TD 25 1002 -1 -9.85002 50.9649 2 25 1004 -9.80000 50.9000 TC 25 6 351
2002319S06078 2003 90 SI MM BOURA 2002-11-24 00:00:00 TS -9.50000 50.8667 25 1005 reunion main 339 339 O____O______O_ jtwc_sh SH032003 -9.50000 50.9000 TD 25 1002 -1 -9.50000 50.8000 2 25 1005 1.50000 1.50000 -9.50000 50.9000 TC 25 5 349
2002319S06078 2003 90 SI MM BOURA 2002-11-24 03:00:00 TS -9.29664 50.8225 main 353 353 P____P______P_ SH032003 -9.28497 50.8875 TD 25 1002 -1 -9.31999 50.6926 2 25 1005 -9.28497 50.8875 TC 25 4 340
2002319S06078 2003 90 SI MM BOURA 2002-11-24 06:00:00 TS -9.13333 50.7333 25 1006 reunion main 369 369 O____O______O_ jtwc_sh SH032003 -9.10000 50.8000 TD 25 1002 -1 -9.20000 50.6000 2 25 1006 1.50000 1.50000 -9.10000 50.8000 TC 25 4 323
2002319S06078 2003 90 SI MM BOURA 2002-11-24 09:00:00 TS -8.94750 50.5608 main 385 381 P____P______P_ SH032003 -8.89251 50.5875 TD 25 1002 -1 -9.05749 50.5075 2 25 1006 -8.89251 50.5875 TC 25 5 313
2002319S06078 2003 90 SI MM BOURA 2002-11-24 12:00:00 TS -8.76667 50.3333 25 1007 reunion main 385 385 O____O______O_ jtwc_sh SH032003 -8.70000 50.3000 TD 25 1002 -1 -8.90000 50.4000 2 25 1007 1.50000 1.50000 -8.70000 50.3000 TC 25 6 307
2002319S06078 2003 90 SI MM BOURA 2002-11-24 15:00:00 TS -8.59500 50.0909 main 401 399 P____P______P_ SH032003 -8.54251 50.0000 TD 25 1002 -1 -8.69998 50.2725 2 25 1007 -8.54251 50.0000 TC 25 6 304
2002319S06078 2003 90 SI MM BOURA 2002-11-24 18:00:00 TS -8.43333 49.8333 25 1007 reunion main 418 416 O____O______O_ jtwc_sh SH032003 -8.40000 49.7000 TD 25 1002 -1 -8.50000 50.1000 2 25 1007 1.50000 1.50000 -8.40000 49.7000 TC 25 6 302
2002319S06078 2003 90 SI MM BOURA 2002-11-24 21:00:00 TS -8.28081 49.5859 main 426 426 P____P______P_ SH032003 -8.24997 49.4425 TD 25 1002 -1 -8.34249 49.8725 2 22 1007 -8.24997 49.4425 TC 25 6 301
2002319S06078 2003 90 SI MM BOURA 2002-11-25 00:00:00 TS -8.13333 49.3333 20 1008 reunion main 448 448 O____O______O_ jtwc_sh SH032003 -8.10000 49.2000 TD 25 1002 -1 -8.20000 49.6000 2 20 1008 1.50000 1.50000 -8.10000 49.2000 TC 25 6 300
2002319S06078 2003 90 SI MM BOURA 2002-11-25 03:00:00 TS -7.98334 49.0567 main 459 459 P____P______P_ SH032003 -7.95000 48.9425 TD 25 1004 -1 -8.05003 49.2850 2 20 1008 -7.95000 48.9425 TC 25 6 300
2002319S06078 2003 90 SI MM BOURA 2002-11-25 06:00:00 TS -7.84000 48.8200 20 1008 reunion main 483 483 O____O______O_ jtwc_sh SH032003 -7.80000 48.7000 TD 25 1006 -1 1009 130 25 -7.90000 49.0000 2 20 1008 1.50000 1.50000 -7.80000 48.7000 TC 25 5 306
2002319S06078 2003 90 SI MM BOURA 2002-11-25 09:00:00 TS -7.69999 48.6550 main 495 495 P____P______P_ SH032003 -7.65001 48.4900 TD 25 1004 -1 -7.74997 48.8200 2 20 1008 -7.65001 48.4900 TC 25 4 317
2002319S06078 2003 90 SI MM BOURA 2002-11-25 12:00:00 TS -7.56667 48.5667 20 1008 reunion main 508 508 O____O______O_ jtwc_sh SH032003 -7.50000 48.3000 TD 25 1002 -1 -7.60000 48.7000 2 20 1008 1.50000 1.50000 -7.50000 48.3000 TC 25 3 343
2002319S06078 2003 90 SI MM BOURA 2002-11-25 15:00:00 TS -7.42750 48.5700 main 530 530 _____P________ SH032003 TD -1 -7.42750 48.5700 2 20 1008 TC 3 347
2002319S06078 2003 90 SI MM BOURA 2002-11-25 18:00:00 TS -7.30000 48.5000 20 1008 reunion main 543 543 _____O________ -7.30000 48.5000 2 20 1008 1.50000 1.50000 2 341
2002319S06078 2003 90 SI MM BOURA 2002-11-25 21:00:00 TS -7.27749 48.5125 main 543 541 _____P________ -7.27749 48.5125 2 20 1008 1 90
2002319S06078 2003 90 SI MM BOURA 2002-11-26 00:00:00 TS -7.30000 48.6000 20 1008 reunion main 541 540 _____O________ -7.30000 48.6000 2 20 1008 1.50000 1.50000 2 97
2002319S06078 2003 90 SI MM BOURA 2002-11-26 03:00:00 TS -7.30751 48.7425 main 540 538 _____P________ -7.30751 48.7425 2 20 1008 3 90
2002319S06078 2003 90 SI MM BOURA 2002-11-26 06:00:00 TS -7.30000 48.9000 20 1008 reunion main 538 538 _____O________ -7.30000 48.9000 2 20 1008 1.50000 1.50000 3 80
2002319S06078 2003 90 SI MM BOURA 2002-11-26 09:00:00 TS -7.25750 49.0150 main 538 538 _____P________ -7.25750 49.0150 2 20 1008 2 63
2002319S06078 2003 90 SI MM BOURA 2002-11-26 12:00:00 TS -7.20000 49.1000 20 1009 reunion main 548 548 _____O________ -7.20000 49.1000 6 20 1009 1.00000 1.50000 2 57
2002319S06078 2003 90 SI MM BOURA 2002-11-26 15:00:00 TS -7.16500 49.1575 main 548 548 _____P________ -7.16500 49.1575 6 17 1009 1 43
2002319S06078 2003 90 SI MM BOURA 2002-11-26 18:00:00 TS -7.10000 49.2000 15 1009 reunion main 560 560 _____O________ -7.10000 49.2000 6 15 1009 1.00000 1.50000 2 25
2002319S06078 2003 90 SI MM BOURA 2002-11-26 21:00:00 TS -6.97250 49.2500 main 571 571 _____P________ -6.97250 49.2500 6 15 1009 3 17
2002319S06078 2003 90 SI MM BOURA 2002-11-27 00:00:00 TS -6.80000 49.3000 15 1009 reunion main 593 593 _____O________ -6.80000 49.3000 6 15 1009 1.00000 1.00000 4 14
2002319S06078 2003 90 SI MM BOURA 2002-11-27 03:00:00 TS -6.60500 49.3500 main 616 616 _____P________ -6.60500 49.3500 6 15 1009 4 13
2002319S06078 2003 90 SI MM BOURA 2002-11-27 06:00:00 TS -6.40000 49.4000 15 1010 reunion main 638 _____O________ -6.40000 49.4000 6 15 1010 9.90000 4 16

About IBTrACS Database

This database is a web-friendly format of International Best Track Archive for Climate Stewardship (IBTrACS), a global best track data archive curated by NOAA dating back to 1842.

Updated: 2021-10-25